createdAt,value
2023-03-17T00:00:20.724Z,1.1
2023-03-17T00:02:51.805Z,1.1
2023-03-17T00:07:52.427Z,0.9
2023-03-17T00:10:23.056Z,0.9
2023-03-17T00:12:53.666Z,0.9
2023-03-17T00:15:34.311Z,1.0
2023-03-17T00:18:05.048Z,0.9
2023-03-17T00:20:35.648Z,0.9
2023-03-17T00:23:06.272Z,0.9
2023-03-17T00:25:36.944Z,0.9
2023-03-17T00:28:07.637Z,0.8
2023-03-17T00:30:48.273Z,0.7
2023-03-17T00:33:19.009Z,0.7
2023-03-17T00:35:49.663Z,0.7
2023-03-17T00:38:20.355Z,0.6
2023-03-17T00:40:50.996Z,0.6
2023-03-17T00:43:31.633Z,0.5
2023-03-17T00:48:42.240Z,0.4
2023-03-17T00:51:12.908Z,0.4
2023-03-17T00:53:43.500Z,0.4
2023-03-17T00:56:14.146Z,0.4
2023-03-17T00:58:54.813Z,0.4
2023-03-17T01:01:26.223Z,0.6
2023-03-17T01:03:56.943Z,0.6
2023-03-17T01:06:27.577Z,0.5
2023-03-17T01:08:58.551Z,0.5
2023-03-17T01:11:29.168Z,0.5
2023-03-17T01:14:09.795Z,0.5
2023-03-17T01:16:40.476Z,0.4
2023-03-17T01:19:11.137Z,0.4
2023-03-17T01:21:41.753Z,0.4
2023-03-17T01:29:22.410Z,0.4
2023-03-17T01:31:53.134Z,0.4
2023-03-17T01:34:23.784Z,0.4
2023-03-17T01:36:54.398Z,0.3
2023-03-17T01:39:24.988Z,0.3
2023-03-17T01:41:55.629Z,0.3
2023-03-17T01:44:36.247Z,0.3
2023-03-17T01:47:06.875Z,0.3
2023-03-17T01:49:37.500Z,0.2
2023-03-17T01:52:08.119Z,0.1
2023-03-17T01:54:38.728Z,0.0
2023-03-17T01:57:19.361Z,0.0
2023-03-17T01:59:50.032Z,0.0
2023-03-17T02:02:20.645Z,0.0
2023-03-17T02:04:51.332Z,0.0
2023-03-17T02:12:31.970Z,-0.1
2023-03-17T02:15:02.601Z,-0.1
2023-03-17T02:17:33.248Z,-0.1
2023-03-17T02:20:03.858Z,-0.1
2023-03-17T02:22:34.468Z,-0.1
2023-03-17T02:25:05.126Z,0.0
2023-03-17T02:27:45.752Z,-0.1
2023-03-17T02:30:16.389Z,-0.1
2023-03-17T02:32:47.106Z,-0.1
2023-03-17T02:35:17.932Z,-0.1
2023-03-17T02:37:48.553Z,-0.1
2023-03-17T02:40:19.156Z,-0.1
2023-03-17T02:43:00.125Z,-0.1
2023-03-17T02:45:30.793Z,-0.1
2023-03-17T02:50:31.888Z,-0.1
2023-03-17T02:53:02.680Z,-0.1
2023-03-17T02:55:43.319Z,-0.1
2023-03-17T02:58:13.916Z,0.0
2023-03-17T03:00:44.544Z,0.0
2023-03-17T03:03:15.198Z,-0.1
2023-03-17T03:05:45.809Z,-0.1
2023-03-17T03:08:16.479Z,-0.1
2023-03-17T03:10:57.112Z,-0.1
2023-03-17T03:13:27.742Z,-0.1
2023-03-17T03:15:58.393Z,-0.1
2023-03-17T03:18:29.162Z,-0.2
2023-03-17T03:20:59.843Z,-0.4
2023-03-17T03:23:30.450Z,-0.4
2023-03-17T03:26:11.088Z,-0.3
2023-03-17T03:31:21.810Z,-0.3
2023-03-17T03:33:52.543Z,-0.4
2023-03-17T03:36:23.260Z,-0.4
2023-03-17T03:38:53.888Z,-0.4
2023-03-17T03:41:34.888Z,-0.4
2023-03-17T03:44:05.503Z,-0.4
2023-03-17T03:46:36.255Z,-0.5
2023-03-17T03:51:36.978Z,-0.4
2023-03-17T03:54:17.837Z,-0.4
2023-03-17T03:56:48.460Z,-0.3
2023-03-17T03:59:19.101Z,-0.3
2023-03-17T04:01:49.711Z,-0.3
2023-03-17T04:04:20.364Z,-0.2
2023-03-17T04:06:51.046Z,-0.2
2023-03-17T04:12:01.667Z,-0.2
2023-03-17T04:14:32.288Z,-0.3
2023-03-17T04:17:02.921Z,-0.3
2023-03-17T04:19:33.527Z,-0.3
2023-03-17T04:22:04.167Z,-0.3
2023-03-17T04:24:44.775Z,-0.4
2023-03-17T04:27:15.459Z,-0.5
2023-03-17T04:29:46.069Z,-0.4
2023-03-17T04:32:16.681Z,-0.4
2023-03-17T04:34:47.734Z,-0.5
2023-03-17T04:37:18.384Z,-0.5
2023-03-17T04:39:59.019Z,-0.5
2023-03-17T04:42:29.647Z,-0.5
2023-03-17T04:45:00.323Z,-0.5
2023-03-17T04:47:30.982Z,-0.5
2023-03-17T04:52:31.620Z,-0.6
2023-03-17T04:55:12.295Z,-0.6
2023-03-17T04:57:43.230Z,-0.6
2023-03-17T05:00:13.843Z,-0.6
2023-03-17T05:02:44.462Z,-0.5
2023-03-17T05:05:11.467Z,-0.5
2023-03-17T05:10:32.329Z,-0.5
2023-03-17T05:13:03.100Z,-0.5
2023-03-17T05:15:33.727Z,-0.5
2023-03-17T05:18:05.045Z,-0.5
2023-03-17T05:20:25.776Z,-0.5
2023-03-17T05:23:16.394Z,-0.5
2023-03-17T05:25:47.030Z,-0.5
2023-03-17T05:28:17.652Z,-0.5
2023-03-17T05:33:18.288Z,-0.4
2023-03-17T05:35:48.980Z,-0.4
2023-03-17T05:38:29.854Z,-0.4
2023-03-17T05:41:00.509Z,-0.5
2023-03-17T05:43:31.133Z,-0.4
2023-03-17T05:46:01.862Z,-0.3
2023-03-17T05:48:32.624Z,-0.2
2023-03-17T05:51:03.251Z,-0.2
2023-03-17T05:53:43.896Z,-0.2
2023-03-17T05:56:14.529Z,-0.3
2023-03-17T05:58:45.158Z,-0.1
2023-03-17T06:01:15.797Z,-0.2
2023-03-17T06:03:46.491Z,-0.1
2023-03-17T06:06:27.277Z,-0.1
2023-03-17T06:08:57.885Z,-0.1
2023-03-17T06:13:58.526Z,-0.1
2023-03-17T06:16:29.171Z,-0.1
2023-03-17T06:18:59.785Z,-0.1
2023-03-17T06:21:40.406Z,0.0
2023-03-17T06:24:11.007Z,0.1
2023-03-17T06:26:41.618Z,0.2
2023-03-17T06:29:12.218Z,0.3
2023-03-17T06:31:42.855Z,0.3
2023-03-17T06:34:09.648Z,0.3
2023-03-17T06:36:50.328Z,0.5
2023-03-17T06:39:20.960Z,0.5
2023-03-17T06:41:51.587Z,0.6
2023-03-17T06:44:22.206Z,0.8
2023-03-17T06:46:52.918Z,0.9
2023-03-17T06:49:23.564Z,1.1
2023-03-17T06:54:34.215Z,1.3
2023-03-17T06:57:04.845Z,1.5
2023-03-17T06:59:45.493Z,1.6
2023-03-17T07:02:16.104Z,1.8
2023-03-17T07:04:56.747Z,2.2
2023-03-17T07:07:27.418Z,2.3
2023-03-17T07:09:58.068Z,2.5
2023-03-17T07:12:28.710Z,2.7
2023-03-17T07:14:59.372Z,2.8
2023-03-17T07:17:30.045Z,3.0
2023-03-17T07:20:10.791Z,3.1
2023-03-17T07:22:41.462Z,3.1
2023-03-17T07:25:12.068Z,3.1
2023-03-17T07:27:43.152Z,3.2
2023-03-17T07:30:13.760Z,3.3
2023-03-17T07:35:24.480Z,3.4
2023-03-17T07:37:55.554Z,3.4
2023-03-17T07:40:26.178Z,3.4
2023-03-17T07:42:56.850Z,3.5
2023-03-17T07:45:27.539Z,3.6
2023-03-17T07:47:58.383Z,3.6
2023-03-17T07:50:39.106Z,3.7
2023-03-17T07:53:09.709Z,3.8
2023-03-17T07:55:40.342Z,3.9
2023-03-17T07:58:11.813Z,4.0
2023-03-17T08:00:43.183Z,4.2
2023-03-17T08:03:23.924Z,4.4
2023-03-17T08:08:24.815Z,4.5
2023-03-17T08:10:55.412Z,4.6
2023-03-17T08:15:56.110Z,4.9
2023-03-17T08:18:36.900Z,5.1
2023-03-17T08:21:07.616Z,5.3
2023-03-17T08:23:38.272Z,5.5
2023-03-17T08:26:08.953Z,5.6
2023-03-17T08:28:39.624Z,5.6
2023-03-17T08:31:12.147Z,5.6
2023-03-17T08:33:53.213Z,5.8
2023-03-17T08:36:23.829Z,5.9
2023-03-17T08:38:54.433Z,6.0
2023-03-17T08:41:25.058Z,6.2
2023-03-17T08:43:55.669Z,6.4
2023-03-17T08:46:26.397Z,6.6
2023-03-17T08:49:07.032Z,6.5
2023-03-17T08:51:37.730Z,6.5
2023-03-17T08:56:38.373Z,6.8
2023-03-17T08:59:09.024Z,7.0
2023-03-17T09:01:49.778Z,6.9
2023-03-17T09:04:20.537Z,6.9
2023-03-17T09:07:02.628Z,7.0
2023-03-17T09:09:23.943Z,7.2
2023-03-17T09:11:54.582Z,7.2
2023-03-17T09:14:25.293Z,7.2
2023-03-17T09:17:05.935Z,7.2
2023-03-17T09:19:36.713Z,7.5
2023-03-17T09:22:07.335Z,7.6
2023-03-17T09:24:38.005Z,7.6
2023-03-17T09:27:08.616Z,7.5
2023-03-17T09:29:39.268Z,7.6
2023-03-17T09:32:19.907Z,7.8
2023-03-17T09:37:20.723Z,8.0
2023-03-17T09:39:51.343Z,7.9
2023-03-17T09:42:21.972Z,7.8
2023-03-17T09:44:52.614Z,7.8
2023-03-17T09:47:33.299Z,7.9
2023-03-17T09:50:03.956Z,7.9
2023-03-17T09:52:34.750Z,8.0
2023-03-17T09:55:05.412Z,8.1
2023-03-17T09:57:36.033Z,8.1
2023-03-17T10:00:06.687Z,8.2
2023-03-17T10:02:47.324Z,8.1
2023-03-17T10:05:18.097Z,8.0
2023-03-17T10:07:49.095Z,8.0
2023-03-17T10:10:19.205Z,8.2
2023-03-17T10:12:50.219Z,8.4
2023-03-17T10:18:00.835Z,8.2
2023-03-17T10:20:31.453Z,8.2
2023-03-17T10:23:02.065Z,8.4
2023-03-17T10:25:33.157Z,8.4
2023-03-17T10:28:03.914Z,8.6
2023-03-17T10:30:44.548Z,8.6
2023-03-17T10:33:15.302Z,8.5
2023-03-17T10:35:46.025Z,8.4
2023-03-17T10:38:16.772Z,8.5
2023-03-17T10:40:47.462Z,8.6
2023-03-17T10:43:18.087Z,8.7
2023-03-17T10:45:58.795Z,8.7
2023-03-17T10:48:29.552Z,8.8
2023-03-17T10:51:00.186Z,9.1
2023-03-17T10:53:30.821Z,9.1
2023-03-17T10:58:31.439Z,9.4
2023-03-17T11:01:12.229Z,9.4
2023-03-17T11:06:12.986Z,9.5
2023-03-17T11:08:43.598Z,9.7
2023-03-17T11:11:14.359Z,10.0
2023-03-17T11:13:55.079Z,10.0
2023-03-17T11:16:25.755Z,10.2
2023-03-17T11:18:56.508Z,10.4
2023-03-17T11:21:27.154Z,10.3
2023-03-17T11:23:57.765Z,10.7
2023-03-17T11:26:28.384Z,10.7
2023-03-17T11:29:09.054Z,10.7
2023-03-17T11:31:39.772Z,10.7
2023-03-17T11:34:10.680Z,10.8
2023-03-17T11:39:11.301Z,11.1
2023-03-17T11:41:42.125Z,11.2
2023-03-17T11:44:22.739Z,11.2
2023-03-17T11:46:53.348Z,11.3
2023-03-17T11:49:23.956Z,11.5
2023-03-17T11:51:54.636Z,11.5
2023-03-17T11:54:25.390Z,11.5
2023-03-17T11:56:55.995Z,11.6
2023-03-17T11:59:36.630Z,11.8
2023-03-17T12:02:07.290Z,11.8
2023-03-17T12:04:38.048Z,11.8
2023-03-17T12:07:08.767Z,11.9
2023-03-17T12:09:39.394Z,12.0
2023-03-17T12:12:30.068Z,12.0
2023-03-17T12:15:00.701Z,12.1
2023-03-17T12:20:01.311Z,12.4
2023-03-17T12:22:31.920Z,12.4
2023-03-17T12:25:02.541Z,12.5
2023-03-17T12:27:43.175Z,12.6
2023-03-17T12:30:13.824Z,12.7
2023-03-17T12:32:44.502Z,12.6
2023-03-17T12:35:15.333Z,12.6
2023-03-17T12:37:46.083Z,12.6
2023-03-17T12:40:16.714Z,12.7
2023-03-17T12:42:57.390Z,12.6
2023-03-17T12:45:28.248Z,12.6
2023-03-17T12:47:58.876Z,12.8
2023-03-17T12:50:29.524Z,13.0
2023-03-17T12:53:00.174Z,13.1
2023-03-17T12:55:30.949Z,13.2
2023-03-17T13:00:41.660Z,13.1
2023-03-17T13:03:12.296Z,13.1
2023-03-17T13:05:43.063Z,13.2
2023-03-17T13:08:13.728Z,13.4
2023-03-17T13:10:44.361Z,13.1
2023-03-17T13:13:24.961Z,13.0
2023-03-17T13:15:55.591Z,12.9
2023-03-17T13:18:26.494Z,13.2
2023-03-17T13:20:57.114Z,13.4
2023-03-17T13:23:27.747Z,13.4
2023-03-17T13:26:08.381Z,13.5
2023-03-17T13:28:38.989Z,13.6
2023-03-17T13:31:09.637Z,13.5
2023-03-17T13:33:40.359Z,13.5
2023-03-17T13:36:11.032Z,13.6
2023-03-17T13:41:21.721Z,13.6
2023-03-17T13:43:52.342Z,13.6
2023-03-17T13:46:23.017Z,13.8
2023-03-17T13:48:53.890Z,14.0
2023-03-17T13:51:24.530Z,14.1
2023-03-17T13:53:58.998Z,14.2
2023-03-17T13:56:39.618Z,14.4
2023-03-17T13:59:10.373Z,14.2
2023-03-17T14:01:40.976Z,14.2
2023-03-17T14:04:11.681Z,14.2
2023-03-17T14:06:42.447Z,14.1
2023-03-17T14:09:13.068Z,14.2
2023-03-17T14:11:53.699Z,14.3
2023-03-17T14:14:32.417Z,14.3
2023-03-17T14:16:53.617Z,14.2
2023-03-17T14:21:54.250Z,14.4
2023-03-17T14:24:25.115Z,14.5
2023-03-17T14:27:05.722Z,14.4
2023-03-17T14:29:36.334Z,14.3
2023-03-17T14:32:07.110Z,14.4
2023-03-17T14:34:37.821Z,14.5
2023-03-17T14:37:08.489Z,14.4
2023-03-17T14:39:49.096Z,14.4
2023-03-17T14:42:19.744Z,14.6
2023-03-17T14:44:50.387Z,14.4
2023-03-17T14:47:21.076Z,14.4
2023-03-17T14:49:51.695Z,14.3
2023-03-17T14:52:22.310Z,14.4
2023-03-17T14:55:02.934Z,14.4
2023-03-17T14:57:33.563Z,14.3
2023-03-17T15:02:34.309Z,14.1
2023-03-17T15:05:04.988Z,14.2
2023-03-17T15:07:35.606Z,14.2
2023-03-17T15:10:16.231Z,14.2
2023-03-17T15:12:46.840Z,14.1
2023-03-17T15:15:17.452Z,14.0
2023-03-17T15:17:48.082Z,14.0
2023-03-17T15:20:18.847Z,14.0
2023-03-17T15:22:49.988Z,14.1
2023-03-17T15:25:30.651Z,14.1
2023-03-17T15:28:01.284Z,14.2
2023-03-17T15:30:45.866Z,14.1
2023-03-17T15:33:07.031Z,14.0
2023-03-17T15:35:37.842Z,14.1
2023-03-17T15:38:08.533Z,14.2
2023-03-17T15:43:19.158Z,14.3
2023-03-17T15:45:49.843Z,14.1
2023-03-17T15:48:20.579Z,14.2
2023-03-17T15:50:51.209Z,14.2
2023-03-17T15:53:31.873Z,14.1
2023-03-17T15:56:02.508Z,14.0
2023-03-17T15:58:33.148Z,14.0
2023-03-17T16:01:03.834Z,13.9
2023-03-17T16:03:37.987Z,13.8
2023-03-17T16:06:08.650Z,13.7
2023-03-17T16:08:49.317Z,13.6
2023-03-17T16:11:20.223Z,13.6
2023-03-17T16:13:50.956Z,13.5
2023-03-17T16:16:21.740Z,13.4
2023-03-17T16:18:52.401Z,13.3
2023-03-17T16:24:03.080Z,13.3
2023-03-17T16:26:33.676Z,13.2
2023-03-17T16:29:05.612Z,13.2
2023-03-17T16:31:36.867Z,13.0
2023-03-17T16:34:07.524Z,13.0
2023-03-17T16:36:38.166Z,12.9
2023-03-17T16:39:18.824Z,12.8
2023-03-17T16:41:49.444Z,12.7
2023-03-17T16:44:20.075Z,12.7
2023-03-17T16:46:50.790Z,12.6
2023-03-17T16:49:21.601Z,12.4
2023-03-17T16:52:02.280Z,12.4
2023-03-17T16:54:32.876Z,12.2
2023-03-17T16:57:04.265Z,12.1
2023-03-17T16:59:35.609Z,11.9
2023-03-17T17:04:36.235Z,11.5
2023-03-17T17:07:16.919Z,11.4
2023-03-17T17:09:47.546Z,11.2
2023-03-17T17:12:18.162Z,11.1
2023-03-17T17:14:48.832Z,10.8
2023-03-17T17:17:19.455Z,10.6
2023-03-17T17:19:50.077Z,10.4
2023-03-17T17:22:30.695Z,10.3
2023-03-17T17:25:01.372Z,10.2
2023-03-17T17:27:31.993Z,10.2
2023-03-17T17:30:02.620Z,10.1
2023-03-17T17:32:33.228Z,9.9
2023-03-17T17:35:03.986Z,9.9
2023-03-17T17:37:44.837Z,9.7
2023-03-17T17:40:15.454Z,9.6
2023-03-17T17:45:16.106Z,9.3
2023-03-17T17:47:46.724Z,9.1
2023-03-17T17:50:27.381Z,9.0
2023-03-17T17:52:58.008Z,8.8
2023-03-17T17:55:28.636Z,8.8
2023-03-17T17:57:59.249Z,8.7
2023-03-17T18:00:30.191Z,8.6
2023-03-17T18:03:01.059Z,8.4
2023-03-17T18:05:41.686Z,8.3
2023-03-17T18:08:12.368Z,8.3
2023-03-17T18:10:42.997Z,8.3
2023-03-17T18:13:13.615Z,8.2
2023-03-17T18:15:44.269Z,8.0
2023-03-17T18:18:14.967Z,8.0
2023-03-17T18:20:55.580Z,8.0
2023-03-17T18:25:56.209Z,7.9
2023-03-17T18:28:26.868Z,7.8
2023-03-17T18:30:57.487Z,7.7
2023-03-17T18:33:28.096Z,7.7
2023-03-17T18:36:08.745Z,7.8
2023-03-17T18:38:39.384Z,7.8
2023-03-17T18:41:10.033Z,7.7
2023-03-17T18:43:40.634Z,7.7
2023-03-17T18:46:11.284Z,7.7
2023-03-17T18:48:52.010Z,7.6
2023-03-17T18:51:22.650Z,7.6
2023-03-17T18:53:53.286Z,7.6
2023-03-17T18:56:23.945Z,7.5
2023-03-17T18:58:54.589Z,7.6
2023-03-17T19:01:25.214Z,7.6
2023-03-17T19:06:45.905Z,7.8
2023-03-17T19:09:16.543Z,7.8
2023-03-17T19:11:47.158Z,7.7
2023-03-17T19:14:17.791Z,7.7
2023-03-17T19:16:48.415Z,7.6
2023-03-17T19:19:29.131Z,7.6
2023-03-17T19:21:59.770Z,7.4
2023-03-17T19:24:30.623Z,7.2
2023-03-17T19:27:01.238Z,7.1
2023-03-17T19:29:31.853Z,7.0
2023-03-17T19:32:02.515Z,6.9
2023-03-17T19:34:43.162Z,6.7
2023-03-17T19:37:13.787Z,6.6
2023-03-17T19:39:44.407Z,6.4
2023-03-17T19:42:15.042Z,6.1
2023-03-17T19:47:25.655Z,5.7
2023-03-17T19:49:56.287Z,5.6
2023-03-17T19:52:26.914Z,5.4
2023-03-17T19:54:57.546Z,5.3
2023-03-17T19:57:28.910Z,5.2
2023-03-17T19:59:59.526Z,4.9
2023-03-17T20:02:40.136Z,4.8
2023-03-17T20:05:10.745Z,4.6
2023-03-17T20:07:41.410Z,4.5
2023-03-17T20:10:12.050Z,4.3
2023-03-17T20:12:42.941Z,4.3
2023-03-17T20:15:13.570Z,4.2
2023-03-17T20:17:54.401Z,4.1
2023-03-17T20:20:25.013Z,4.0
2023-03-17T20:22:55.647Z,4.0
2023-03-17T20:27:56.284Z,3.8
2023-03-17T20:30:26.879Z,3.7
2023-03-17T20:33:07.659Z,3.6
2023-03-17T20:35:38.337Z,3.5
2023-03-17T20:38:09.179Z,3.4
2023-03-17T20:40:39.797Z,3.3
2023-03-17T20:43:10.424Z,3.3
2023-03-17T20:45:51.040Z,3.2
2023-03-17T20:48:21.673Z,3.1
2023-03-17T20:50:52.290Z,3.0
2023-03-17T20:53:22.911Z,3.0
2023-03-17T20:55:53.537Z,3.0
2023-03-17T20:58:24.196Z,3.1
2023-03-17T21:01:04.809Z,3.1
2023-03-17T21:03:35.473Z,3.3
2023-03-17T21:08:36.130Z,3.6
2023-03-17T21:11:06.808Z,3.8
2023-03-17T21:13:37.466Z,3.9
2023-03-17T21:16:18.181Z,4.1
2023-03-17T21:18:49.096Z,4.1
2023-03-17T21:21:19.974Z,4.0
2023-03-17T21:23:50.605Z,3.5
2023-03-17T21:26:21.239Z,3.1
2023-03-17T21:28:51.848Z,2.8
2023-03-17T21:31:32.480Z,2.7
2023-03-17T21:34:03.423Z,2.5
2023-03-17T21:36:34.118Z,2.4
2023-03-17T21:39:04.765Z,2.3
2023-03-17T21:41:36.821Z,2.2
2023-03-17T21:44:07.429Z,2.1
2023-03-17T21:49:18.060Z,2.2
2023-03-17T21:51:48.698Z,2.3
2023-03-17T21:54:19.316Z,2.5
2023-03-17T21:56:50.009Z,2.7
2023-03-17T21:59:30.639Z,2.6
2023-03-17T22:02:01.319Z,2.5
2023-03-17T22:04:31.927Z,2.5
2023-03-17T22:07:02.580Z,2.5
2023-03-17T22:09:33.200Z,2.4
2023-03-17T22:12:03.866Z,2.3
2023-03-17T22:14:44.495Z,2.3
2023-03-17T22:17:15.153Z,2.3
2023-03-17T22:19:45.797Z,2.3
2023-03-17T22:22:16.975Z,2.2
2023-03-17T22:24:47.620Z,2.1
2023-03-17T22:29:58.280Z,2.0
2023-03-17T22:32:29.042Z,2.0
2023-03-17T22:34:59.858Z,2.0
2023-03-17T22:37:30.549Z,2.1
2023-03-17T22:40:01.164Z,2.2
2023-03-17T22:42:31.795Z,2.4
2023-03-17T22:45:22.402Z,2.6
2023-03-17T22:47:53.054Z,2.8
2023-03-17T22:50:23.669Z,2.9
2023-03-17T22:52:54.918Z,2.9
2023-03-17T22:55:25.538Z,2.8
2023-03-17T22:57:56.151Z,2.6
2023-03-17T23:00:36.816Z,2.4
2023-03-17T23:03:07.484Z,2.3
2023-03-17T23:05:38.188Z,2.1
2023-03-17T23:10:38.860Z,1.7
2023-03-17T23:13:19.475Z,1.6
2023-03-17T23:15:50.085Z,1.5
2023-03-17T23:18:20.741Z,1.3
2023-03-17T23:20:51.369Z,1.2
2023-03-17T23:23:22.026Z,1.2
2023-03-17T23:25:52.670Z,1.1
2023-03-17T23:28:33.282Z,1.0
2023-03-17T23:31:03.965Z,0.9
2023-03-17T23:33:34.712Z,0.9
2023-03-17T23:36:05.376Z,0.9
2023-03-17T23:38:36.039Z,0.7
2023-03-17T23:41:06.726Z,0.7
2023-03-17T23:43:47.407Z,0.6
2023-03-17T23:46:18.141Z,0.6
2023-03-17T23:51:18.942Z,0.4
2023-03-17T23:53:49.587Z,0.6
2023-03-17T23:56:20.223Z,0.7
2023-03-17T23:59:00.819Z,0.8
